sensor_id;sensor_type;location;lat;lon;timestamp;pressure;altitude;pressure_sealevel;temperature;humidity
70343;BME280;57767;42.068;24.752;2022-10-16T00:00:51;99571.59;;;12.27;58.18
70343;BME280;57767;42.068;24.752;2022-10-16T00:01:52;99574.44;;;12.26;58.15
70343;BME280;57767;42.068;24.752;2022-10-16T00:02:54;99580.53;;;12.26;58.37
70343;BME280;57767;42.068;24.752;2022-10-16T00:03:58;99573.63;;;12.25;58.03
70343;BME280;57767;42.068;24.752;2022-10-16T00:05:00;99575.66;;;12.23;58.00
70343;BME280;57767;42.068;24.752;2022-10-16T00:06:03;99552.19;;;12.07;58.30
70343;BME280;57767;42.068;24.752;2022-10-16T00:07:05;99575.41;;;12.11;58.11
70343;BME280;57767;42.068;24.752;2022-10-16T00:08:07;99575.63;;;12.16;58.77
70343;BME280;57767;42.068;24.752;2022-10-16T00:09:09;99560.94;;;12.01;58.41
70343;BME280;57767;42.068;24.752;2022-10-16T00:10:11;99581.13;;;12.15;58.61
70343;BME280;57767;42.068;24.752;2022-10-16T00:11:16;99583.16;;;12.13;58.46
70343;BME280;57767;42.068;24.752;2022-10-16T00:12:18;99583.16;;;12.13;57.94
70343;BME280;57767;42.068;24.752;2022-10-16T00:13:19;99586.81;;;12.12;58.57
70343;BME280;57767;42.068;24.752;2022-10-16T00:14:22;99591.50;;;12.10;58.59
70343;BME280;57767;42.068;24.752;2022-10-16T00:15:23;99551.94;;;11.89;59.09
70343;BME280;57767;42.068;24.752;2022-10-16T00:16:26;99588.84;;;12.10;59.18
70343;BME280;57767;42.068;24.752;2022-10-16T00:17:29;99589.25;;;12.07;58.83
70343;BME280;57767;42.068;24.752;2022-10-16T00:18:31;99550.72;;;11.84;58.13
70343;BME280;57767;42.068;24.752;2022-10-16T00:19:33;99591.50;;;12.10;57.82
70343;BME280;57767;42.068;24.752;2022-10-16T00:20:34;99571.72;;;11.99;58.15
70343;BME280;57767;42.068;24.752;2022-10-16T00:21:38;99583.75;;;12.08;58.35
70343;BME280;57767;42.068;24.752;2022-10-16T00:22:40;99566.81;;;11.96;58.45
70343;BME280;57767;42.068;24.752;2022-10-16T00:23:42;99584.34;;;12.04;58.33
70343;BME280;57767;42.068;24.752;2022-10-16T00:24:44;99560.47;;;11.91;58.10
70343;BME280;57767;42.068;24.752;2022-10-16T00:25:55;99595.16;;;12.09;58.10
70343;BME280;57767;42.068;24.752;2022-10-16T00:26:57;99595.16;;;12.09;58.21
70343;BME280;57767;42.068;24.752;2022-10-16T00:27:59;99598.00;;;12.07;58.01
70343;BME280;57767;42.068;24.752;2022-10-16T00:29:01;99599.22;;;12.05;58.28
70343;BME280;57767;42.068;24.752;2022-10-16T00:30:04;99578.81;;;11.92;58.39
70343;BME280;57767;42.068;24.752;2022-10-16T00:31:09;99585.78;;;12.00;58.36
70343;BME280;57767;42.068;24.752;2022-10-16T00:32:11;99584.53;;;11.96;58.02
70343;BME280;57767;42.068;24.752;2022-10-16T00:33:13;99594.72;;;12.05;58.74
70343;BME280;57767;42.068;24.752;2022-10-16T00:34:14;99588.22;;;12.08;58.30
70343;BME280;57767;42.068;24.752;2022-10-16T00:35:16;99591.28;;;12.05;58.30
70343;BME280;57767;42.068;24.752;2022-10-16T00:36:20;99592.28;;;12.04;58.48
70343;BME280;57767;42.068;24.752;2022-10-16T00:37:22;99590.69;;;12.03;58.42
70343;BME280;57767;42.068;24.752;2022-10-16T00:38:24;99578.41;;;11.89;58.44
70343;BME280;57767;42.068;24.752;2022-10-16T00:39:26;99587.41;;;12.01;58.70
70343;BME280;57767;42.068;24.752;2022-10-16T00:40:27;99558.84;;;11.83;58.59
70343;BME280;57767;42.068;24.752;2022-10-16T00:41:30;99582.47;;;11.91;58.96
70343;BME280;57767;42.068;24.752;2022-10-16T00:42:32;99600.63;;;12.01;58.67
70343;BME280;57767;42.068;24.752;2022-10-16T00:43:44;99599.00;;;12.00;58.43
70343;BME280;57767;42.068;24.752;2022-10-16T00:44:50;99601.84;;;11.98;58.44
70343;BME280;57767;42.068;24.752;2022-10-16T00:45:53;99606.31;;;11.98;58.74
70343;BME280;57767;42.068;24.752;2022-10-16T00:46:55;99573.69;;;11.77;58.40
70343;BME280;57767;42.068;24.752;2022-10-16T00:47:57;99575.91;;;11.80;58.82
70343;BME280;57767;42.068;24.752;2022-10-16T00:49:15;99604.88;;;11.95;58.78
70343;BME280;57767;42.068;24.752;2022-10-16T00:50:35;99597.53;;;11.91;59.06
70343;BME280;57767;42.068;24.752;2022-10-16T00:51:39;99605.25;;;11.86;59.02
70343;BME280;57767;42.068;24.752;2022-10-16T00:52:45;99604.84;;;11.82;58.84
70343;BME280;57767;42.068;24.752;2022-10-16T00:53:48;99574.19;;;11.60;58.94
70343;BME280;57767;42.068;24.752;2022-10-16T00:54:52;99607.28;;;11.83;58.38
70343;BME280;57767;42.068;24.752;2022-10-16T00:55:55;99582.13;;;11.66;58.64
70343;BME280;57767;42.068;24.752;2022-10-16T00:57:01;99614.22;;;11.84;58.74
70343;BME280;57767;42.068;24.752;2022-10-16T00:58:04;99595.59;;;11.71;58.19
70343;BME280;57767;42.068;24.752;2022-10-16T00:59:16;99621.13;;;11.86;58.25
70343;BME280;57767;42.068;24.752;2022-10-16T01:00:23;99589.88;;;11.68;58.83
70343;BME280;57767;42.068;24.752;2022-10-16T01:01:25;99620.50;;;11.83;58.93
70343;BME280;57767;42.068;24.752;2022-10-16T01:02:27;99598.25;;;11.71;58.20
70343;BME280;57767;42.068;24.752;2022-10-16T01:03:35;99617.88;;;11.83;58.07
70343;BME280;57767;42.068;24.752;2022-10-16T01:04:43;99631.28;;;11.82;58.15
70343;BME280;57767;42.068;24.752;2022-10-16T01:05:50;99626.81;;;11.82;58.47
70343;BME280;57767;42.068;24.752;2022-10-16T01:08:08;99629.59;;;11.74;58.42
70343;BME280;57767;42.068;24.752;2022-10-16T01:08:57;99632.44;;;11.73;58.80
70343;BME280;57767;42.068;24.752;2022-10-16T01:10:13;99634.28;;;11.72;59.22
70343;BME280;57767;42.068;24.752;2022-10-16T01:11:45;99637.31;;;11.69;59.29
70343;BME280;57767;42.068;24.752;2022-10-16T01:13:10;99631.81;;;11.64;59.15
70343;BME280;57767;42.068;24.752;2022-10-16T01:15:48;99642.56;;;11.63;59.23
70343;BME280;57767;42.068;24.752;2022-10-16T01:17:04;99617.63;;;11.44;58.81
70343;BME280;57767;42.068;24.752;2022-10-16T01:18:17;99638.47;;;11.60;59.47
70343;BME280;57767;42.068;24.752;2022-10-16T01:19:36;99638.69;;;11.59;59.26
70343;BME280;57767;42.068;24.752;2022-10-16T01:20:45;99633.56;;;11.57;59.20
70343;BME280;57767;42.068;24.752;2022-10-16T01:21:51;99645.78;;;11.58;59.63
70343;BME280;57767;42.068;24.752;2022-10-16T01:24:43;99636.47;;;11.62;59.45
70343;BME280;57767;42.068;24.752;2022-10-16T01:27:28;99630.31;;;11.55;58.93
70343;BME280;57767;42.068;24.752;2022-10-16T01:28:38;99629.09;;;11.51;59.18
70343;BME280;57767;42.068;24.752;2022-10-16T01:30:50;99619.28;;;11.45;59.37
70343;BME280;57767;42.068;24.752;2022-10-16T01:32:00;99648.25;;;11.60;58.94
70343;BME280;57767;42.068;24.752;2022-10-16T01:33:10;99644.16;;;11.57;59.39
70343;BME280;57767;42.068;24.752;2022-10-16T01:34:24;99652.09;;;11.57;59.52
70343;BME280;57767;42.068;24.752;2022-10-16T01:35:33;99642.13;;;11.59;59.45
70343;BME280;57767;42.068;24.752;2022-10-16T01:36:41;99647.44;;;11.59;59.23
70343;BME280;57767;42.068;24.752;2022-10-16T01:39:04;99648.25;;;11.60;58.60
70343;BME280;57767;42.068;24.752;2022-10-16T01:40:11;99657.00;;;11.60;58.75
70343;BME280;57767;42.068;24.752;2022-10-16T01:41:22;99635.38;;;11.50;58.88
70343;BME280;57767;42.068;24.752;2022-10-16T01:42:32;99657.81;;;11.61;59.10
70343;BME280;57767;42.068;24.752;2022-10-16T01:43:49;99657.00;;;11.60;59.22
70343;BME280;57767;42.068;24.752;2022-10-16T01:44:52;99650.91;;;11.60;59.99
70343;BME280;57767;42.068;24.752;2022-10-16T01:45:57;99644.06;;;11.44;59.87
70343;BME280;57767;42.068;24.752;2022-10-16T01:47:00;99667.34;;;11.55;60.13
70343;BME280;57767;42.068;24.752;2022-10-16T01:48:04;99649.19;;;11.45;60.14
70343;BME280;57767;42.068;24.752;2022-10-16T01:49:10;99635.31;;;11.37;60.04
70343;BME280;57767;42.068;24.752;2022-10-16T01:50:15;99662.47;;;11.52;60.17
70343;BME280;57767;42.068;24.752;2022-10-16T01:51:18;99634.41;;;11.30;60.54
70343;BME280;57767;42.068;24.752;2022-10-16T01:52:23;99671.16;;;11.46;60.72
70343;BME280;57767;42.068;24.752;2022-10-16T01:53:27;99657.22;;;11.31;61.41
70343;BME280;57767;42.068;24.752;2022-10-16T01:54:31;99673.53;;;11.41;61.38
70343;BME280;57767;42.068;24.752;2022-10-16T01:55:38;99675.97;;;11.36;61.68
70343;BME280;57767;42.068;24.752;2022-10-16T01:56:41;99646.72;;;11.16;61.80
70343;BME280;57767;42.068;24.752;2022-10-16T01:57:46;99649.81;;;11.20;61.80
70343;BME280;57767;42.068;24.752;2022-10-16T01:58:56;99671.44;;;11.30;61.84
70343;BME280;57767;42.068;24.752;2022-10-16T02:00:03;99672.44;;;11.29;61.96
70343;BME280;57767;42.068;24.752;2022-10-16T02:01:08;99667.16;;;11.29;61.94
70343;BME280;57767;42.068;24.752;2022-10-16T02:02:15;99675.50;;;11.26;62.21
70343;BME280;57767;42.068;24.752;2022-10-16T02:03:19;99668.13;;;11.21;62.28
70343;BME280;57767;42.068;24.752;2022-10-16T02:04:37;99670.31;;;11.18;62.26
70343;BME280;57767;42.068;24.752;2022-10-16T02:05:54;99656.44;;;11.09;62.41
70343;BME280;57767;42.068;24.752;2022-10-16T02:06:56;99670.31;;;11.18;62.17
70343;BME280;57767;42.068;24.752;2022-10-16T02:07:58;99658.53;;;11.13;61.48
70343;BME280;57767;42.068;24.752;2022-10-16T02:09:05;99651.16;;;11.09;62.28
70343;BME280;57767;42.068;24.752;2022-10-16T02:10:08;99667.31;;;11.21;62.02
70343;BME280;57767;42.068;24.752;2022-10-16T02:11:10;99642.22;;;11.10;61.97
70343;BME280;57767;42.068;24.752;2022-10-16T02:12:22;99660.63;;;11.25;62.18
70343;BME280;57767;42.068;24.752;2022-10-16T02:13:31;99665.50;;;11.28;62.31
70343;BME280;57767;42.068;24.752;2022-10-16T02:14:38;99643.47;;;11.14;61.60
70343;BME280;57767;42.068;24.752;2022-10-16T02:15:40;99661.28;;;11.27;61.79
70343;BME280;57767;42.068;24.752;2022-10-16T02:16:44;99660.22;;;11.28;61.03
70343;BME280;57767;42.068;24.752;2022-10-16T02:17:46;99639.63;;;11.17;61.78
70343;BME280;57767;42.068;24.752;2022-10-16T02:18:48;99661.06;;;11.28;61.17
70343;BME280;57767;42.068;24.752;2022-10-16T02:19:52;99656.56;;;11.29;61.21
70343;BME280;57767;42.068;24.752;2022-10-16T02:21:02;99658.63;;;11.27;60.82
70343;BME280;57767;42.068;24.752;2022-10-16T02:22:08;99665.13;;;11.31;61.01
70343;BME280;57767;42.068;24.752;2022-10-16T02:23:14;99634.03;;;11.05;61.48
70343;BME280;57767;42.068;24.752;2022-10-16T02:24:24;99674.28;;;11.28;60.85
70343;BME280;57767;42.068;24.752;2022-10-16T02:25:35;99641.03;;;11.12;61.41
70343;BME280;57767;42.068;24.752;2022-10-16T02:28:12;99659.56;;;11.19;60.87
70343;BME280;57767;42.068;24.752;2022-10-16T02:29:18;99633.84;;;11.06;61.62
70343;BME280;57767;42.068;24.752;2022-10-16T02:30:29;99668.56;;;11.25;62.08
70343;BME280;57767;42.068;24.752;2022-10-16T02:31:33;99658.94;;;11.17;61.45
70343;BME280;57767;42.068;24.752;2022-10-16T02:32:40;99676.50;;;11.25;61.42
70343;BME280;57767;42.068;24.752;2022-10-16T02:33:44;99670.31;;;11.18;62.34
70343;BME280;57767;42.068;24.752;2022-10-16T02:34:48;99673.97;;;11.17;62.38
70343;BME280;57767;42.068;24.752;2022-10-16T02:35:51;99666.84;;;11.10;62.71
70343;BME280;57767;42.068;24.752;2022-10-16T02:36:54;99680.09;;;11.17;62.22
70343;BME280;57767;42.068;24.752;2022-10-16T02:37:56;99665.81;;;11.11;62.85
70343;BME280;57767;42.068;24.752;2022-10-16T02:38:59;99678.88;;;11.20;62.54
70343;BME280;57767;42.068;24.752;2022-10-16T02:40:03;99656.00;;;11.05;62.92
70343;BME280;57767;42.068;24.752;2022-10-16T02:41:06;99658.00;;;11.03;62.61
70343;BME280;57767;42.068;24.752;2022-10-16T02:42:12;99661.34;;;11.12;63.11
70343;BME280;57767;42.068;24.752;2022-10-16T02:43:14;99663.75;;;11.07;62.96
70343;BME280;57767;42.068;24.752;2022-10-16T02:44:16;99647.41;;;10.97;63.14
70343;BME280;57767;42.068;24.752;2022-10-16T02:45:18;99688.47;;;11.21;63.18
70343;BME280;57767;42.068;24.752;2022-10-16T02:46:20;99685.38;;;11.17;63.21
70343;BME280;57767;42.068;24.752;2022-10-16T02:47:22;99684.19;;;11.20;63.50
70343;BME280;57767;42.068;24.752;2022-10-16T02:48:24;99669.66;;;11.09;63.09
70343;BME280;57767;42.068;24.752;2022-10-16T02:49:25;99673.31;;;11.08;63.45
70343;BME280;57767;42.068;24.752;2022-10-16T02:50:27;99687.81;;;11.19;63.34
70343;BME280;57767;42.068;24.752;2022-10-16T02:51:29;99687.81;;;11.19;63.76
70343;BME280;57767;42.068;24.752;2022-10-16T02:52:30;99676.00;;;11.14;63.72
70343;BME280;57767;42.068;24.752;2022-10-16T02:53:32;99682.53;;;11.19;64.10
70343;BME280;57767;42.068;24.752;2022-10-16T02:54:34;99692.75;;;11.22;63.53
70343;BME280;57767;42.068;24.752;2022-10-16T02:55:36;99633.91;;;10.85;63.73
70343;BME280;57767;42.068;24.752;2022-10-16T02:56:38;99696.00;;;11.24;64.21
70343;BME280;57767;42.068;24.752;2022-10-16T02:57:40;99688.00;;;11.17;63.36
70343;BME280;57767;42.068;24.752;2022-10-16T02:58:41;99703.50;;;11.20;64.34
70343;BME280;57767;42.068;24.752;2022-10-16T02:59:43;99660.81;;;10.95;63.96
70343;BME280;57767;42.068;24.752;2022-10-16T03:00:45;99703.31;;;11.22;63.95
70343;BME280;57767;42.068;24.752;2022-10-16T03:01:47;99698.41;;;11.19;64.12
70343;BME280;57767;42.068;24.752;2022-10-16T03:02:50;99694.50;;;11.14;64.14
70343;BME280;57767;42.068;24.752;2022-10-16T03:03:51;99679.03;;;11.11;64.03
70343;BME280;57767;42.068;24.752;2022-10-16T03:04:53;99698.88;;;11.29;63.70
70343;BME280;57767;42.068;24.752;2022-10-16T03:05:55;99704.97;;;11.29;63.84
70343;BME280;57767;42.068;24.752;2022-10-16T03:06:56;99702.97;;;11.31;63.76
70343;BME280;57767;42.068;24.752;2022-10-16T03:07:58;99671.75;;;11.13;63.69
70343;BME280;57767;42.068;24.752;2022-10-16T03:09:02;99701.34;;;11.30;63.54
70343;BME280;57767;42.068;24.752;2022-10-16T03:10:04;99675.19;;;11.14;63.98
70343;BME280;57767;42.068;24.752;2022-10-16T03:11:06;99702.16;;;11.31;64.42
70343;BME280;57767;42.068;24.752;2022-10-16T03:12:08;99692.78;;;11.28;63.64
70343;BME280;57767;42.068;24.752;2022-10-16T03:13:09;99684.00;;;11.21;63.53
70343;BME280;57767;42.068;24.752;2022-10-16T03:14:11;99682.97;;;11.22;63.48
70343;BME280;57767;42.068;24.752;2022-10-16T03:15:13;99671.97;;;11.19;63.96
70343;BME280;57767;42.068;24.752;2022-10-16T03:16:14;99685.81;;;11.21;63.57
70343;BME280;57767;42.068;24.752;2022-10-16T03:17:16;99707.06;;;11.34;64.20
70343;BME280;57767;42.068;24.752;2022-10-16T03:18:18;99703.59;;;11.33;63.53
70343;BME280;57767;42.068;24.752;2022-10-16T03:19:20;99679.91;;;11.19;64.01
70343;BME280;57767;42.068;24.752;2022-10-16T03:20:22;99679.72;;;11.20;64.12
70343;BME280;57767;42.068;24.752;2022-10-16T03:21:23;99669.91;;;11.14;63.93
70343;BME280;57767;42.068;24.752;2022-10-16T03:22:26;99713.63;;;11.38;64.04
70343;BME280;57767;42.068;24.752;2022-10-16T03:23:27;99713.63;;;11.38;63.10
70343;BME280;57767;42.068;24.752;2022-10-16T03:24:31;99702.16;;;11.31;63.69
70343;BME280;57767;42.068;24.752;2022-10-16T03:25:32;99716.47;;;11.43;63.05
70343;BME280;57767;42.068;24.752;2022-10-16T03:26:34;99709.56;;;11.42;63.13
70343;BME280;57767;42.068;24.752;2022-10-16T03:27:36;99705.44;;;11.33;63.11
70343;BME280;57767;42.068;24.752;2022-10-16T03:28:37;99717.31;;;11.43;63.12
70343;BME280;57767;42.068;24.752;2022-10-16T03:29:39;99713.84;;;11.43;63.14
70343;BME280;57767;42.068;24.752;2022-10-16T03:30:42;99719.13;;;11.43;62.52
70343;BME280;57767;42.068;24.752;2022-10-16T03:31:44;99692.09;;;11.20;63.01
70343;BME280;57767;42.068;24.752;2022-10-16T03:32:46;99710.16;;;11.37;62.96
70343;BME280;57767;42.068;24.752;2022-10-16T03:33:48;99684.56;;;11.17;63.26
70343;BME280;57767;42.068;24.752;2022-10-16T03:34:49;99724.19;;;11.38;63.20
70343;BME280;57767;42.068;24.752;2022-10-16T03:35:52;99717.25;;;11.37;63.37
70343;BME280;57767;42.068;24.752;2022-10-16T03:36:54;99695.56;;;11.20;63.10
70343;BME280;57767;42.068;24.752;2022-10-16T03:37:56;99715.81;;;11.34;62.94
70343;BME280;57767;42.068;24.752;2022-10-16T03:38:58;99715.81;;;11.34;63.04
70343;BME280;57767;42.068;24.752;2022-10-16T03:39:59;99719.22;;;11.28;63.28
70343;BME280;57767;42.068;24.752;2022-10-16T03:41:01;99723.63;;;11.21;63.75
70343;BME280;57767;42.068;24.752;2022-10-16T03:42:03;99687.50;;;11.00;63.86
70343;BME280;57767;42.068;24.752;2022-10-16T03:43:04;99724.84;;;11.19;63.90
70343;BME280;57767;42.068;24.752;2022-10-16T03:44:06;99711.50;;;11.05;63.83
70343;BME280;57767;42.068;24.752;2022-10-16T03:45:09;99719.91;;;11.16;63.97
70343;BME280;57767;42.068;24.752;2022-10-16T03:46:11;99712.13;;;11.07;63.82
70343;BME280;57767;42.068;24.752;2022-10-16T03:47:12;99724.84;;;11.19;63.50
70343;BME280;57767;42.068;24.752;2022-10-16T03:48:14;99713.13;;;11.06;63.77
70343;BME280;57767;42.068;24.752;2022-10-16T03:49:16;99727.66;;;11.17;64.21
70343;BME280;57767;42.068;24.752;2022-10-16T03:50:17;99705.59;;;11.03;63.49
70343;BME280;57767;42.068;24.752;2022-10-16T03:51:19;99716.28;;;11.17;63.66
70343;BME280;57767;42.068;24.752;2022-10-16T03:52:21;99697.44;;;10.98;63.86
70343;BME280;57767;42.068;24.752;2022-10-16T03:53:23;99718.88;;;11.10;63.61
70343;BME280;57767;42.068;24.752;2022-10-16T03:54:24;99697.16;;;10.93;63.78
70343;BME280;57767;42.068;24.752;2022-10-16T03:55:26;99732.53;;;11.13;63.34
70343;BME280;57767;42.068;24.752;2022-10-16T03:56:28;99734.59;;;11.18;63.59
70343;BME280;57767;42.068;24.752;2022-10-16T03:57:30;99710.25;;;11.01;63.89
70343;BME280;57767;42.068;24.752;2022-10-16T03:58:31;99738.22;;;11.17;63.84
70343;BME280;57767;42.068;24.752;2022-10-16T03:59:33;99712.09;;;11.01;63.50
70343;BME280;57767;42.068;24.752;2022-10-16T04:00:35;99733.53;;;11.12;63.75
70343;BME280;57767;42.068;24.752;2022-10-16T04:01:36;99729.63;;;11.08;63.98
70343;BME280;57767;42.068;24.752;2022-10-16T04:02:38;99730.00;;;11.05;63.30
70343;BME280;57767;42.068;24.752;2022-10-16T04:03:40;99726.72;;;11.03;63.67
70343;BME280;57767;42.068;24.752;2022-10-16T04:04:42;99725.09;;;11.02;63.75
70343;BME280;57767;42.068;24.752;2022-10-16T04:05:44;99735.09;;;11.07;63.59
70343;BME280;57767;42.068;24.752;2022-10-16T04:06:46;99720.38;;;10.98;63.45
70343;BME280;57767;42.068;24.752;2022-10-16T04:07:47;99731.91;;;11.11;63.53
70343;BME280;57767;42.068;24.752;2022-10-16T04:08:49;99727.44;;;11.12;63.88
70343;BME280;57767;42.068;24.752;2022-10-16T04:09:51;99734.53;;;11.11;63.69
70343;BME280;57767;42.068;24.752;2022-10-16T04:10:53;99706.72;;;10.94;63.34
70343;BME280;57767;42.068;24.752;2022-10-16T04:11:55;99714.91;;;10.99;63.10
70343;BME280;57767;42.068;24.752;2022-10-16T04:12:56;99730.44;;;11.09;63.48
70343;BME280;57767;42.068;24.752;2022-10-16T04:13:58;99703.63;;;10.91;63.98
70343;BME280;57767;42.068;24.752;2022-10-16T04:15:00;99735.72;;;11.09;63.62
70343;BME280;57767;42.068;24.752;2022-10-16T04:16:02;99727.81;;;11.09;63.39
70343;BME280;57767;42.068;24.752;2022-10-16T04:17:03;99734.91;;;11.08;63.01
70343;BME280;57767;42.068;24.752;2022-10-16T04:18:05;99692.00;;;10.85;63.64
70343;BME280;57767;42.068;24.752;2022-10-16T04:19:07;99695.91;;;10.89;63.19
70343;BME280;57767;42.068;24.752;2022-10-16T04:20:09;99733.09;;;11.09;63.06
70343;BME280;57767;42.068;24.752;2022-10-16T04:21:10;99729.00;;;11.06;62.92
70343;BME280;57767;42.068;24.752;2022-10-16T04:22:12;99735.09;;;11.07;63.01
70343;BME280;57767;42.068;24.752;2022-10-16T04:23:14;99730.38;;;11.02;62.92
70343;BME280;57767;42.068;24.752;2022-10-16T04:24:16;99718.19;;;11.01;62.89
70343;BME280;57767;42.068;24.752;2022-10-16T04:25:17;99726.13;;;11.01;63.50
70343;BME280;57767;42.068;24.752;2022-10-16T04:26:19;99732.41;;;11.00;63.18
70343;BME280;57767;42.068;24.752;2022-10-16T04:27:21;99734.59;;;10.97;63.75
70343;BME280;57767;42.068;24.752;2022-10-16T04:28:22;99734.41;;;10.98;62.96
70343;BME280;57767;42.068;24.752;2022-10-16T04:29:24;99738.06;;;10.97;63.21
70343;BME280;57767;42.068;24.752;2022-10-16T04:30:26;99734.78;;;10.95;63.16
70343;BME280;57767;42.068;24.752;2022-10-16T04:31:28;99739.63;;;10.92;63.38
70343;BME280;57767;42.068;24.752;2022-10-16T04:32:30;99727.72;;;10.81;63.08
70343;BME280;57767;42.068;24.752;2022-10-16T04:33:31;99729.19;;;10.84;63.13
70343;BME280;57767;42.068;24.752;2022-10-16T04:34:33;99739.22;;;10.88;63.25
70343;BME280;57767;42.068;24.752;2022-10-16T04:35:36;99740.81;;;10.89;63.50
70343;BME280;57767;42.068;24.752;2022-10-16T04:36:37;99738.38;;;10.88;63.27
70343;BME280;57767;42.068;24.752;2022-10-16T04:37:39;99739.56;;;10.85;63.27
70343;BME280;57767;42.068;24.752;2022-10-16T04:38:41;99739.75;;;10.84;63.75
70343;BME280;57767;42.068;24.752;2022-10-16T04:39:42;99716.78;;;10.63;63.45
70343;BME280;57767;42.068;24.752;2022-10-16T04:40:44;99746.59;;;10.78;64.13
70343;BME280;57767;42.068;24.752;2022-10-16T04:41:46;99741.72;;;10.75;63.66
70343;BME280;57767;42.068;24.752;2022-10-16T04:42:48;99742.72;;;10.74;63.57
70343;BME280;57767;42.068;24.752;2022-10-16T04:43:49;99745.34;;;10.74;63.94
70343;BME280;57767;42.068;24.752;2022-10-16T04:44:51;99727.34;;;10.63;63.84
70343;BME280;57767;42.068;24.752;2022-10-16T04:45:53;99740.63;;;10.69;64.12
70343;BME280;57767;42.068;24.752;2022-10-16T04:46:56;99737.97;;;10.69;63.60
70343;BME280;57767;42.068;24.752;2022-10-16T04:47:58;99705.28;;;10.34;64.21
70343;BME280;57767;42.068;24.752;2022-10-16T04:49:00;99731.50;;;10.51;64.45
70343;BME280;57767;42.068;24.752;2022-10-16T04:50:02;99749.03;;;10.58;64.68
70343;BME280;57767;42.068;24.752;2022-10-16T04:51:04;99749.84;;;10.59;64.29
70343;BME280;57767;42.068;24.752;2022-10-16T04:52:06;99693.81;;;10.27;64.24
70343;BME280;57767;42.068;24.752;2022-10-16T04:53:07;99747.41;;;10.57;63.30
70343;BME280;57767;42.068;24.752;2022-10-16T04:54:09;99741.03;;;10.52;63.74
70343;BME280;57767;42.068;24.752;2022-10-16T04:55:11;99752.69;;;10.57;64.02
70343;BME280;57767;42.068;24.752;2022-10-16T04:56:13;99745.69;;;10.50;63.64
70343;BME280;57767;42.068;24.752;2022-10-16T04:57:17;99748.56;;;10.55;63.12
70343;BME280;57767;42.068;24.752;2022-10-16T04:58:19;99735.78;;;10.37;63.69
70343;BME280;57767;42.068;24.752;2022-10-16T04:59:21;99734.59;;;10.39;63.32
70343;BME280;57767;42.068;24.752;2022-10-16T05:00:23;99725.78;;;10.32;63.31
70343;BME280;57767;42.068;24.752;2022-10-16T05:01:25;99756.25;;;10.50;63.66
70343;BME280;57767;42.068;24.752;2022-10-16T05:02:27;99748.88;;;10.45;64.07
70343;BME280;57767;42.068;24.752;2022-10-16T05:03:28;99757.25;;;10.49;64.38
70343;BME280;57767;42.068;24.752;2022-10-16T05:04:31;99755.78;;;10.46;63.79
70343;BME280;57767;42.068;24.752;2022-10-16T05:05:33;99764.72;;;10.45;64.65
70343;BME280;57767;42.068;24.752;2022-10-16T05:06:35;99759.81;;;10.42;64.47
70343;BME280;57767;42.068;24.752;2022-10-16T05:07:37;99752.19;;;10.32;64.88
70343;BME280;57767;42.068;24.752;2022-10-16T05:08:39;99751.53;;;10.30;65.24
70343;BME280;57767;42.068;24.752;2022-10-16T05:09:40;99761.38;;;10.36;64.98
70343;BME280;57767;42.068;24.752;2022-10-16T05:10:43;99762.38;;;10.35;65.05
70343;BME280;57767;42.068;24.752;2022-10-16T05:11:45;99746.63;;;10.27;65.63
70343;BME280;57767;42.068;24.752;2022-10-16T05:12:47;99767.09;;;10.40;65.20
70343;BME280;57767;42.068;24.752;2022-10-16T05:13:49;99769.53;;;10.41;65.52
70343;BME280;57767;42.068;24.752;2022-10-16T05:14:56;99771.75;;;10.38;65.55
70343;BME280;57767;42.068;24.752;2022-10-16T05:16:00;99767.09;;;10.40;65.87
70343;BME280;57767;42.068;24.752;2022-10-16T05:17:01;99779.56;;;10.46;65.62
70343;BME280;57767;42.068;24.752;2022-10-16T05:18:03;99779.38;;;10.48;65.73
70343;BME280;57767;42.068;24.752;2022-10-16T05:19:05;99777.81;;;10.53;65.90
70343;BME280;57767;42.068;24.752;2022-10-16T05:20:27;99746.91;;;10.32;66.07
70343;BME280;57767;42.068;24.752;2022-10-16T05:21:28;99785.53;;;10.55;66.45
70343;BME280;57767;42.068;24.752;2022-10-16T05:22:30;99781.91;;;10.56;66.45
70343;BME280;57767;42.068;24.752;2022-10-16T05:23:32;99778.25;;;10.57;66.42
70343;BME280;57767;42.068;24.752;2022-10-16T05:24:34;99754.28;;;10.37;66.33
70343;BME280;57767;42.068;24.752;2022-10-16T05:25:36;99770.69;;;10.54;66.72
70343;BME280;57767;42.068;24.752;2022-10-16T05:26:38;99790.75;;;10.63;66.39
70343;BME280;57767;42.068;24.752;2022-10-16T05:27:40;99790.16;;;10.67;66.62
70343;BME280;57767;42.068;24.752;2022-10-16T05:28:41;99792.63;;;10.69;66.10
70343;BME280;57767;42.068;24.752;2022-10-16T05:29:46;99780.78;;;10.65;65.94
70343;BME280;57767;42.068;24.752;2022-10-16T05:30:48;99794.53;;;10.75;66.10
70343;BME280;57767;42.068;24.752;2022-10-16T05:31:51;99796.78;;;10.78;66.40
70343;BME280;57767;42.068;24.752;2022-10-16T05:32:54;99796.41;;;10.81;65.73
70343;BME280;57767;42.068;24.752;2022-10-16T05:33:59;99783.34;;;10.73;65.90
70343;BME280;57767;42.068;24.752;2022-10-16T05:35:01;99776.78;;;10.69;65.58
70343;BME280;57767;42.068;24.752;2022-10-16T05:36:05;99800.97;;;10.87;65.57
70343;BME280;57767;42.068;24.752;2022-10-16T05:37:07;99807.91;;;10.88;66.62
70343;BME280;57767;42.068;24.752;2022-10-16T05:38:09;99773.19;;;10.76;65.74
70343;BME280;57767;42.068;24.752;2022-10-16T05:39:11;99799.66;;;10.98;65.32
70343;BME280;57767;42.068;24.752;2022-10-16T05:40:13;99810.47;;;11.03;65.68
70343;BME280;57767;42.068;24.752;2022-10-16T05:41:15;99803.00;;;11.06;65.72
70343;BME280;57767;42.068;24.752;2022-10-16T05:42:22;99801.94;;;11.01;66.03
70343;BME280;57767;42.068;24.752;2022-10-16T05:43:24;99797.84;;;10.98;65.74